MDT,Max TemperatureF,Mean TemperatureF,Min TemperatureF,Max Dew PointF,MeanDew PointF,Min DewpointF,Max Humidity, Mean Humidity, Min Humidity, Max Sea Level PressureIn, Mean Sea Level PressureIn, Min Sea Level PressureIn, Max VisibilityMiles, Mean VisibilityMiles, Min VisibilityMiles, Max Wind SpeedMPH, Mean Wind SpeedMPH, Max Gust SpeedMPH,PrecipitationIn, CloudCover, Events, WindDirDegrees
2013-5-1,47,38,28,27,20,9,85,54,22,30.66,30.51,30.23,10,10,10,10,3,15,0.00,5,,347
2013-5-2,58,42,26,30,21,17,78,51,23,30.67,30.53,30.34,10,10,10,9,4,13,0.00,1,,147
2013-5-3,65,46,27,36,27,22,81,51,20,30.32,30.18,30.11,10,10,10,18,5,22,0.00,3,,319
2013-5-4,54,45,36,43,41,37,92,76,59,30.25,30.22,30.14,10,9,2,18,6,21,0.15,8,Rain,316
2013-5-5,65,48,30,39,32,28,92,60,27,30.27,30.15,30.04,10,10,10,14,3,18,0.00,1,,93
2013-5-6,71,52,32,39,32,28,85,54,22,30.06,29.97,29.86,10,10,10,15,4,31,0.00,0,,122
2013-5-7,77,56,35,39,34,30,76,48,20,29.88,29.83,29.78,10,10,10,15,5,20,0.00,1,,319
2013-5-8,71,56,41,41,38,32,76,54,31,30.12,30.04,29.89,10,10,10,25,9,31,0.00,4,,320
2013-5-9,74,56,37,43,37,28,85,53,20,30.14,30.09,30.03,10,10,10,17,3,23,0.00,1,,3
2013-5-10,74,55,36,42,36,30,79,51,23,30.37,30.20,30.10,10,10,10,24,7,44,T,3,,349
2013-5-11,72,51,30,42,33,26,82,54,26,30.40,30.26,30.08,10,10,10,10,3,13,0.00,1,,200
2013-5-12,84,63,41,55,41,36,76,48,20,30.08,29.98,29.87,10,10,10,22,6,28,0.00,0,,292
2013-5-13,91,73,54,47,39,28,62,37,11,29.94,29.82,29.64,10,10,10,16,6,22,0.00,0,,249
2013-5-14,79,64,49,49,42,32,72,47,21,29.88,29.80,29.64,10,10,10,26,6,31,0.00,1,,342
2013-5-15,77,60,43,49,38,34,71,48,24,29.95,29.86,29.77,10,10,10,16,5,17,0.00,0,,290
2013-5-16,73,60,47,51,46,41,83,61,38,29.84,29.79,29.72,10,10,9,22,5,26,0.04,3,Rain,311
2013-5-17,62,55,48,54,51,48,96,84,72,29.88,29.83,29.75,10,10,2,23,5,26,0.23,6,Rain,308
2013-5-18,65,54,43,52,49,42,93,79,65,29.92,29.87,29.81,10,10,10,21,8,24,T,6,Rain,318
2013-5-19,54,52,49,49,48,46,93,88,83,29.97,29.90,29.84,10,10,10,30,19,37,0.35,8,Rain,309
2013-5-20,57,51,45,47,43,36,93,68,43,30.14,30.03,29.96,10,10,6,31,19,40,0.44,8,Rain,316
2013-5-21,65,55,45,41,38,33,82,58,34,30.08,29.99,29.91,10,10,10,24,11,29,0.00,3,,331
2013-5-22,64,54,43,46,42,39,89,70,51,29.98,29.94,29.91,10,10,10,30,11,44,0.00,5,,107
2013-5-23,69,59,48,48,45,42,80,62,44,29.90,29.75,29.61,10,10,10,47,32,60,0.00,0,,143
2013-5-24,73,58,43,49,44,39,93,64,34,29.92,29.84,29.65,10,10,10,24,5,32,0.00,3,,294
2013-5-25,77,59,40,54,44,38,83,60,36,29.91,29.82,29.72,10,10,10,32,8,41,0.00,0,,265
2013-5-26,73,60,46,58,50,38,89,69,49,29.99,29.85,29.75,10,10,2,18,6,26,0.61,4,Rain,151
2013-5-27,68,55,42,51,47,34,96,65,34,29.87,29.79,29.70,10,10,9,43,8,54,0.10,2,Rain,312
2013-5-28,72,56,40,51,45,38,89,65,40,29.76,29.68,29.60,10,10,10,23,4,31,0.04,4,Rain,299
2013-5-29,58,54,49,52,50,47,96,87,77,29.65,29.61,29.57,10,10,9,20,11,25,0.67,8,Rain,315
2013-5-30,50,48,45,47,44,41,93,87,80,29.78,29.65,29.56,10,10,10,37,26,47,0.30,8,Rain,312
2013-5-31,53,49,45,43,41,38,86,73,59,30.19,29.94,29.74,10,10,10,44,29,54,0.10,8,Rain,314